createdAt,value
2024-04-25T00:01:36.461Z,13.40
2024-04-25T00:04:03.469Z,9.70
2024-04-25T00:06:30.365Z,10.37
2024-04-25T00:08:58.080Z,21.40
2024-04-25T00:11:26.921Z,10.23
2024-04-25T00:13:55.210Z,12.00
2024-04-25T00:16:22.050Z,7.60
2024-04-25T00:18:48.839Z,12.97
2024-04-25T00:21:15.627Z,15.63
2024-04-25T00:23:42.506Z,17.77
2024-04-25T00:26:09.306Z,9.17
2024-04-25T00:28:36.360Z,15.47
2024-04-25T00:31:03.334Z,14.03
2024-04-25T00:33:30.235Z,13.93
2024-04-25T00:35:57.104Z,15.73
2024-04-25T00:38:23.922Z,11.40
2024-04-25T00:40:50.734Z,14.90
2024-04-25T00:43:18.973Z,10.83
2024-04-25T00:45:46.204Z,11.73
2024-04-25T00:48:13.124Z,10.97
2024-04-25T00:50:40.112Z,10.73
2024-04-25T00:53:06.998Z,11.00
2024-04-25T00:55:33.794Z,11.57
2024-04-25T00:58:00.625Z,13.17
2024-04-25T01:00:27.543Z,17.13
2024-04-25T01:02:55.883Z,15.53
2024-04-25T01:05:23.131Z,10.93
2024-04-25T01:07:49.980Z,9.27
2024-04-25T01:10:16.795Z,13.07
2024-04-25T01:12:43.588Z,12.40
2024-04-25T01:15:10.419Z,14.67
2024-04-25T01:17:37.439Z,14.10
2024-04-25T01:20:08.016Z,12.80
2024-04-25T01:22:36.815Z,6.97
2024-04-25T01:25:04.708Z,9.50
2024-04-25T01:27:31.547Z,12.63
2024-04-25T01:29:58.321Z,10.00
2024-04-25T01:32:25.352Z,18.93
2024-04-25T01:34:52.295Z,10.57
2024-04-25T01:37:19.075Z,7.67
2024-04-25T01:39:46.017Z,9.13
2024-04-25T01:42:12.820Z,8.57
2024-04-25T01:44:39.631Z,10.13
2024-04-25T01:47:06.469Z,9.20
2024-04-25T01:49:33.268Z,12.37
2024-04-25T01:52:00.066Z,5.93
2024-04-25T01:54:26.908Z,9.23
2024-04-25T01:56:54.212Z,8.97
2024-04-25T01:59:21.021Z,10.77
2024-04-25T02:01:47.844Z,6.97
2024-04-25T02:04:14.675Z,10.57
2024-04-25T02:06:41.464Z,6.63
2024-04-25T02:09:08.329Z,10.77
2024-04-25T02:11:35.218Z,6.47
2024-04-25T02:14:02.043Z,9.80
2024-04-25T02:16:28.823Z,10.73
2024-04-25T02:18:55.765Z,9.07
2024-04-25T02:21:41.393Z,10.43
2024-04-25T02:24:27.049Z,8.77
2024-04-25T02:26:53.834Z,9.33
2024-04-25T02:29:20.697Z,10.13
2024-04-25T02:31:47.555Z,6.50
2024-04-25T02:34:14.333Z,10.13
2024-04-25T02:36:41.120Z,12.80
2024-04-25T02:39:08.092Z,7.67
2024-04-25T02:41:35.004Z,10.40
2024-04-25T02:44:02.061Z,7.13
2024-04-25T02:46:28.847Z,8.40
2024-04-25T02:48:55.785Z,8.57
2024-04-25T02:51:22.630Z,8.63
2024-04-25T02:53:49.444Z,6.13
2024-04-25T02:56:17.653Z,8.60
2024-04-25T02:58:44.947Z,9.47
2024-04-25T03:01:11.738Z,8.43
2024-04-25T03:03:38.679Z,10.13
2024-04-25T03:06:06.183Z,6.53
2024-04-25T03:08:33.316Z,12.07
2024-04-25T03:11:06.581Z,7.97
2024-04-25T03:13:35.857Z,9.10
2024-04-25T03:16:04.943Z,8.83
2024-04-25T03:18:32.192Z,7.67
2024-04-25T03:21:08.637Z,10.37
2024-04-25T03:23:36.869Z,7.97
2024-04-25T03:26:07.488Z,12.67
2024-04-25T03:28:34.905Z,9.77
2024-04-25T03:31:02.228Z,7.27
2024-04-25T03:33:29.232Z,8.80
2024-04-25T03:35:56.145Z,9.47
2024-04-25T03:38:23.031Z,6.53
2024-04-25T03:40:50.001Z,9.37
2024-04-25T03:43:16.828Z,6.07
2024-04-25T03:45:43.612Z,9.37
2024-04-25T03:48:10.560Z,10.83
2024-04-25T03:50:38.332Z,5.60
2024-04-25T03:53:05.316Z,5.53
2024-04-25T03:55:32.131Z,10.10
2024-04-25T03:57:58.936Z,8.73
2024-04-25T04:00:25.712Z,7.87
2024-04-25T04:02:52.994Z,6.07
2024-04-25T04:05:20.256Z,5.33
2024-04-25T04:07:47.402Z,10.17
2024-04-25T04:10:14.252Z,8.17
2024-04-25T04:12:41.055Z,9.20
2024-04-25T04:15:08.025Z,10.73
2024-04-25T04:17:34.912Z,9.57
2024-04-25T04:20:01.941Z,7.10
2024-04-25T04:22:28.851Z,8.03
2024-04-25T04:24:55.640Z,10.27
2024-04-25T04:27:22.581Z,10.90
2024-04-25T04:29:49.433Z,9.07
2024-04-25T04:32:16.326Z,10.80
2024-04-25T04:34:45.666Z,8.37
2024-04-25T04:37:15.532Z,10.30
2024-04-25T04:39:42.318Z,8.10
2024-04-25T04:42:09.743Z,7.07
2024-04-25T04:44:36.998Z,7.83
2024-04-25T04:47:04.127Z,8.03
2024-04-25T04:49:31.012Z,9.53
2024-04-25T04:51:58.575Z,7.83
2024-04-25T04:54:25.340Z,9.20
2024-04-25T04:56:52.104Z,15.10
2024-04-25T04:59:19.097Z,6.90
2024-04-25T05:01:45.905Z,6.87
2024-04-25T05:04:12.709Z,9.67
2024-04-25T05:06:39.520Z,8.33
2024-04-25T05:09:06.312Z,13.47
2024-04-25T05:11:33.459Z,6.63
2024-04-25T05:14:02.031Z,10.60
2024-04-25T05:16:30.330Z,10.73
2024-04-25T05:18:57.154Z,15.87
2024-04-25T05:21:24.011Z,8.00
2024-04-25T05:23:50.827Z,10.90
2024-04-25T05:26:17.674Z,6.27
2024-04-25T05:28:44.503Z,6.60
2024-04-25T05:31:11.529Z,13.23
2024-04-25T05:33:38.413Z,7.23
2024-04-25T05:36:06.738Z,9.50
2024-04-25T05:38:33.563Z,7.37
2024-04-25T05:41:00.469Z,4.23
2024-04-25T05:43:27.326Z,7.30
2024-04-25T05:45:54.152Z,15.50
2024-04-25T05:48:21.082Z,10.83
2024-04-25T05:50:48.180Z,5.90
2024-04-25T05:53:15.085Z,8.47
2024-04-25T05:55:45.871Z,10.63
2024-04-25T05:58:13.359Z,9.67
2024-04-25T06:00:40.310Z,8.40
2024-04-25T06:03:07.222Z,8.43
2024-04-25T06:05:34.169Z,9.57
2024-04-25T06:08:01.292Z,10.47
2024-04-25T06:10:28.152Z,8.30
2024-04-25T06:12:55.193Z,11.67
2024-04-25T06:15:22.081Z,11.03
2024-04-25T06:17:48.969Z,12.13
2024-04-25T06:20:17.911Z,11.47
2024-04-25T06:22:44.769Z,11.77
2024-04-25T06:25:11.641Z,14.63
2024-04-25T06:27:38.468Z,31.87
2024-04-25T06:30:05.896Z,13.23
2024-04-25T06:32:34.692Z,15.87
2024-04-25T06:35:03.124Z,10.17
2024-04-25T06:37:29.961Z,9.80
2024-04-25T06:39:56.789Z,13.63
2024-04-25T06:42:23.596Z,19.33
2024-04-25T06:44:53.785Z,15.77
2024-04-25T06:47:21.362Z,9.73
2024-04-25T06:49:48.413Z,7.60
2024-04-25T06:52:15.312Z,15.50
2024-04-25T06:54:42.378Z,12.20
2024-04-25T06:57:09.202Z,15.53
2024-04-25T06:59:36.288Z,11.03
2024-04-25T07:02:05.152Z,12.27
2024-04-25T07:04:32.177Z,12.53
2024-04-25T07:06:58.983Z,8.77
2024-04-25T07:09:25.947Z,17.27
2024-04-25T07:11:54.403Z,11.00
2024-04-25T07:14:23.121Z,11.93
2024-04-25T07:16:51.110Z,15.40
2024-04-25T07:19:19.012Z,7.17
2024-04-25T07:21:46.135Z,14.10
2024-04-25T07:24:13.142Z,12.23
2024-04-25T07:26:40.013Z,15.80
2024-04-25T07:29:06.876Z,14.03
2024-04-25T07:31:33.679Z,13.13
2024-04-25T07:34:00.630Z,10.20
2024-04-25T07:36:27.448Z,13.43
2024-04-25T07:38:54.483Z,13.50
2024-04-25T07:41:21.423Z,13.23
2024-04-25T07:43:48.220Z,10.43
2024-04-25T07:46:15.565Z,12.83
2024-04-25T07:48:45.421Z,8.40
2024-04-25T07:51:12.327Z,13.10
2024-04-25T07:53:39.239Z,7.87
2024-04-25T07:56:06.290Z,11.53
2024-04-25T07:58:33.146Z,12.23
2024-04-25T08:01:00.845Z,11.73
2024-04-25T08:03:28.306Z,14.53
2024-04-25T08:05:55.294Z,12.37
2024-04-25T08:08:25.621Z,9.27
2024-04-25T08:10:53.279Z,17.90
2024-04-25T08:13:20.137Z,11.03
2024-04-25T08:15:47.230Z,10.10
2024-04-25T08:18:14.343Z,18.40
2024-04-25T08:20:41.357Z,12.20
2024-04-25T08:23:08.288Z,16.97
2024-04-25T08:25:35.091Z,14.50
2024-04-25T08:28:01.915Z,10.53
2024-04-25T08:30:28.777Z,13.40
2024-04-25T08:32:56.090Z,16.90
2024-04-25T08:35:23.305Z,13.93
2024-04-25T08:37:50.188Z,8.80
2024-04-25T08:40:17.026Z,9.27
2024-04-25T08:42:45.227Z,15.53
2024-04-25T08:45:12.219Z,17.23
2024-04-25T08:47:42.852Z,9.37
2024-04-25T08:50:11.876Z,9.10
2024-04-25T08:52:41.490Z,12.47
2024-04-25T08:55:09.684Z,8.50
2024-04-25T08:57:36.496Z,15.67
2024-04-25T09:00:03.788Z,10.43
2024-04-25T09:02:30.672Z,16.10
2024-04-25T09:04:57.541Z,6.87
2024-04-25T09:07:25.674Z,14.60
2024-04-25T09:09:55.461Z,11.37
2024-04-25T09:12:22.340Z,8.43
2024-04-25T09:14:49.254Z,11.67
2024-04-25T09:17:19.195Z,13.53
2024-04-25T09:19:45.990Z,14.27
2024-04-25T09:22:12.797Z,11.97
2024-04-25T09:24:39.562Z,16.73
2024-04-25T09:27:07.979Z,13.30
2024-04-25T09:29:34.918Z,14.10
2024-04-25T09:32:03.750Z,15.30
2024-04-25T09:34:30.569Z,13.03
2024-04-25T09:36:57.908Z,11.17
2024-04-25T09:39:24.688Z,13.57
2024-04-25T09:41:51.578Z,12.20
2024-04-25T09:44:18.571Z,12.40
2024-04-25T09:46:50.102Z,14.87
2024-04-25T09:49:17.903Z,13.03
2024-04-25T09:51:47.496Z,13.87
2024-04-25T09:54:17.996Z,18.33
2024-04-25T09:56:45.106Z,10.40
2024-04-25T09:59:13.425Z,14.30
2024-04-25T10:01:40.244Z,11.90
2024-04-25T10:04:07.314Z,11.33
2024-04-25T10:06:34.287Z,13.10
2024-04-25T10:09:02.118Z,14.57
2024-04-25T10:11:29.633Z,11.60
2024-04-25T10:13:56.514Z,13.20
2024-04-25T10:16:23.509Z,11.40
2024-04-25T10:18:54.242Z,13.70
2024-04-25T10:21:22.069Z,15.10
2024-04-25T10:23:51.937Z,12.10
2024-04-25T10:26:19.829Z,11.53
2024-04-25T10:29:05.302Z,8.90
2024-04-25T10:31:37.375Z,11.03
2024-04-25T10:34:08.267Z,11.67
2024-04-25T10:36:36.606Z,10.20
2024-04-25T10:39:08.439Z,8.33
2024-04-25T10:41:40.187Z,10.97
2024-04-25T10:44:07.513Z,8.53
2024-04-25T10:46:34.673Z,11.23
2024-04-25T10:49:04.150Z,9.40
2024-04-25T10:51:31.584Z,13.80
2024-04-25T10:53:58.393Z,14.13
2024-04-25T10:56:25.364Z,13.20
2024-04-25T10:58:58.370Z,17.03
2024-04-25T11:01:25.617Z,12.33
2024-04-25T11:03:59.444Z,9.97
2024-04-25T11:06:27.646Z,8.90
2024-04-25T11:08:55.026Z,10.00
2024-04-25T11:11:22.648Z,16.83
2024-04-25T11:13:50.295Z,8.13
2024-04-25T11:16:22.835Z,12.03
2024-04-25T11:18:54.943Z,6.38
2024-04-25T11:21:26.028Z,10.35
2024-04-25T11:23:53.081Z,9.97
2024-04-25T11:26:21.797Z,10.00
2024-04-25T11:28:48.762Z,11.20
2024-04-25T11:31:15.600Z,14.63
2024-04-25T11:33:43.605Z,9.37
2024-04-25T11:36:10.515Z,9.60
2024-04-25T11:38:37.366Z,12.30
2024-04-25T11:41:04.294Z,9.00
2024-04-25T11:43:31.069Z,8.77
2024-04-25T11:45:58.247Z,21.40
2024-04-25T11:48:28.447Z,24.13
2024-04-25T11:50:55.729Z,13.53
2024-04-25T11:53:22.608Z,15.33
2024-04-25T11:55:49.493Z,10.10
2024-04-25T11:58:16.358Z,12.50
2024-04-25T12:00:49.255Z,11.43
2024-04-25T12:03:16.739Z,14.13
2024-04-25T12:05:43.571Z,15.87
2024-04-25T12:08:10.430Z,14.07
2024-04-25T12:10:37.407Z,10.93
2024-04-25T12:13:08.961Z,13.20
2024-04-25T12:15:36.815Z,13.53
2024-04-25T12:18:05.829Z,12.93
2024-04-25T12:20:32.906Z,13.63
2024-04-25T12:22:59.731Z,9.93
2024-04-25T12:25:26.549Z,18.13
2024-04-25T12:27:53.364Z,13.63
2024-04-25T12:30:20.181Z,14.37
2024-04-25T12:32:47.297Z,13.67
2024-04-25T12:35:14.367Z,15.10
2024-04-25T12:37:41.333Z,12.47
2024-04-25T12:40:08.773Z,12.77
2024-04-25T12:42:35.590Z,17.13
2024-04-25T12:45:02.697Z,14.03
2024-04-25T12:47:29.766Z,13.47
2024-04-25T12:49:56.719Z,16.50
2024-04-25T12:52:23.534Z,19.07
2024-04-25T12:54:50.332Z,15.03
2024-04-25T12:57:23.008Z,15.13
2024-04-25T12:59:51.573Z,11.33
2024-04-25T13:02:18.668Z,12.57
2024-04-25T13:04:45.536Z,15.43
2024-04-25T13:07:12.424Z,13.50
2024-04-25T13:09:39.284Z,15.17
2024-04-25T13:12:06.201Z,21.57
2024-04-25T13:14:33.127Z,18.40
2024-04-25T13:16:59.963Z,22.50
2024-04-25T13:19:26.838Z,14.27
2024-04-25T13:21:53.750Z,15.13
2024-04-25T13:24:20.760Z,14.43
2024-04-25T13:26:47.720Z,21.30
2024-04-25T13:29:14.703Z,13.33
2024-04-25T13:31:41.567Z,18.77
2024-04-25T13:34:09.593Z,13.03
2024-04-25T13:36:36.503Z,19.13
2024-04-25T13:39:03.352Z,13.77
2024-04-25T13:41:30.208Z,27.47
2024-04-25T13:43:57.076Z,12.47
2024-04-25T13:46:23.911Z,15.80
2024-04-25T13:48:52.118Z,25.60
2024-04-25T13:51:19.023Z,21.50
2024-04-25T13:53:45.867Z,18.77
2024-04-25T13:56:12.693Z,21.90
2024-04-25T13:58:39.515Z,14.17
2024-04-25T14:01:12.874Z,17.67
2024-04-25T14:03:40.064Z,21.73
2024-04-25T14:06:07.381Z,18.00
2024-04-25T14:08:34.261Z,18.40
2024-04-25T14:11:01.163Z,15.87
2024-04-25T14:13:28.045Z,18.33
2024-04-25T14:15:54.903Z,16.10
2024-04-25T14:18:26.724Z,16.07
2024-04-25T14:20:53.785Z,13.70
2024-04-25T14:23:20.682Z,22.90
2024-04-25T14:26:06.087Z,18.27
2024-04-25T14:28:45.063Z,27.27
2024-04-25T14:31:15.852Z,16.03
2024-04-25T14:33:45.667Z,21.67
2024-04-25T14:36:12.769Z,18.50
2024-04-25T14:38:40.354Z,22.60
2024-04-25T14:41:09.774Z,19.17
2024-04-25T14:43:36.950Z,16.43
2024-04-25T14:46:03.889Z,20.27
2024-04-25T14:48:30.854Z,20.70
2024-04-25T14:50:58.342Z,15.07
2024-04-25T14:53:25.815Z,18.73
2024-04-25T14:55:52.954Z,13.47
2024-04-25T14:58:20.615Z,15.63
2024-04-25T15:00:47.617Z,19.50
2024-04-25T15:03:14.487Z,18.63
2024-04-25T15:05:41.374Z,18.50
2024-04-25T15:08:08.251Z,16.20
2024-04-25T15:10:36.305Z,16.77
2024-04-25T15:13:03.717Z,17.70
2024-04-25T15:15:34.054Z,15.60
2024-04-25T15:18:01.174Z,13.83
2024-04-25T15:20:28.153Z,17.20
2024-04-25T15:22:57.880Z,13.73
2024-04-25T15:25:27.745Z,14.33
2024-04-25T15:27:54.555Z,17.60
2024-04-25T15:30:21.389Z,12.97
2024-04-25T15:32:50.747Z,14.57
2024-04-25T15:35:18.150Z,18.80
2024-04-25T15:37:44.984Z,13.37
2024-04-25T15:40:11.812Z,15.03
2024-04-25T15:42:38.647Z,14.53
2024-04-25T15:45:05.737Z,10.30
2024-04-25T15:47:34.447Z,13.83
2024-04-25T15:50:01.424Z,18.10
2024-04-25T15:52:30.541Z,13.50
2024-04-25T15:54:57.388Z,11.10
2024-04-25T15:57:24.350Z,10.67
2024-04-25T15:59:51.492Z,12.30
2024-04-25T16:02:20.151Z,12.80
2024-04-25T16:04:50.082Z,14.27
2024-04-25T16:07:18.452Z,15.77
2024-04-25T16:09:46.880Z,10.00
2024-04-25T16:12:13.799Z,14.30
2024-04-25T16:14:40.816Z,14.20
2024-04-25T16:17:07.711Z,12.10
2024-04-25T16:19:36.573Z,16.83
2024-04-25T16:22:03.499Z,17.00
2024-04-25T16:24:30.388Z,14.93
2024-04-25T16:26:58.577Z,15.60
2024-04-25T16:29:26.139Z,14.00
2024-04-25T16:31:53.566Z,19.77
2024-04-25T16:34:20.779Z,14.63
2024-04-25T16:36:47.670Z,15.97
2024-04-25T16:39:14.495Z,19.93
2024-04-25T16:41:41.418Z,16.70
2024-04-25T16:44:08.337Z,12.70
2024-04-25T16:46:36.468Z,21.03
2024-04-25T16:49:03.277Z,18.43
2024-04-25T16:51:31.493Z,23.33
2024-04-25T16:53:58.330Z,20.50
2024-04-25T16:56:25.222Z,17.33
2024-04-25T16:58:53.442Z,16.67
2024-04-25T17:01:20.250Z,24.43
2024-04-25T17:03:47.157Z,22.97
2024-04-25T17:06:14.933Z,25.73
2024-04-25T17:08:41.787Z,25.30
2024-04-25T17:11:17.569Z,22.07
2024-04-25T17:13:45.966Z,20.90
2024-04-25T17:16:12.786Z,17.87
2024-04-25T17:18:39.616Z,21.50
2024-04-25T17:21:10.357Z,25.63
2024-04-25T17:23:39.191Z,19.87
2024-04-25T17:26:09.562Z,17.07
2024-04-25T17:28:36.404Z,19.13
2024-04-25T17:31:03.248Z,20.37
2024-04-25T17:33:30.257Z,14.93
2024-04-25T17:35:57.118Z,16.43
2024-04-25T17:38:23.999Z,15.93
2024-04-25T17:40:51.174Z,18.87
2024-04-25T17:43:17.961Z,19.40
2024-04-25T17:45:44.755Z,19.57
2024-04-25T17:48:11.722Z,19.63
2024-04-25T17:50:38.578Z,16.03
2024-04-25T17:53:06.415Z,16.73
2024-04-25T17:55:33.223Z,25.03
2024-04-25T17:58:00.062Z,20.07
2024-04-25T18:00:26.910Z,19.30
2024-04-25T18:02:57.028Z,22.60
2024-04-25T18:05:24.061Z,16.97
2024-04-25T18:07:50.954Z,17.00
2024-04-25T18:10:17.847Z,19.07
2024-04-25T18:12:44.918Z,14.93
2024-04-25T18:15:11.707Z,22.27
2024-04-25T18:17:40.139Z,19.53
2024-04-25T18:20:07.532Z,19.20
2024-04-25T18:22:34.829Z,16.60
2024-04-25T18:25:01.652Z,14.03
2024-04-25T18:27:28.469Z,15.33
2024-04-25T18:29:56.927Z,17.77
2024-04-25T18:32:23.818Z,18.93
2024-04-25T18:34:50.667Z,16.47
2024-04-25T18:37:17.478Z,17.87
2024-04-25T18:39:44.271Z,23.97
2024-04-25T18:42:11.210Z,20.63
2024-04-25T18:44:38.138Z,19.80
2024-04-25T18:47:05.488Z,16.27
2024-04-25T18:49:32.528Z,20.57
2024-04-25T18:52:00.114Z,26.80
2024-04-25T18:54:27.611Z,19.40
2024-04-25T18:56:54.986Z,21.40
2024-04-25T18:59:22.419Z,14.70
2024-04-25T19:01:49.326Z,17.13
2024-04-25T19:04:21.217Z,19.80
2024-04-25T19:06:51.980Z,21.23
2024-04-25T19:09:22.257Z,19.33
2024-04-25T19:11:49.220Z,18.00
2024-04-25T19:14:16.242Z,17.10
2024-04-25T19:16:43.157Z,16.77
2024-04-25T19:19:13.462Z,17.27
2024-04-25T19:21:43.495Z,18.77
2024-04-25T19:24:11.066Z,18.60
2024-04-25T19:26:38.142Z,15.70
2024-04-25T19:29:05.172Z,20.10
2024-04-25T19:31:41.026Z,23.90
2024-04-25T19:34:08.112Z,23.33
2024-04-25T19:36:36.319Z,16.77
2024-04-25T19:39:03.245Z,15.90
2024-04-25T19:41:33.179Z,14.47
2024-04-25T19:44:00.078Z,13.60
2024-04-25T19:46:26.914Z,17.77
2024-04-25T19:48:53.762Z,15.27
2024-04-25T19:51:20.667Z,15.53
2024-04-25T19:53:47.629Z,16.13
2024-04-25T19:56:14.696Z,14.53
2024-04-25T19:58:46.342Z,17.10
2024-04-25T20:01:14.438Z,11.93
2024-04-25T20:03:42.113Z,16.37
2024-04-25T20:06:16.817Z,22.53
2024-04-25T20:08:43.735Z,14.87
2024-04-25T20:11:10.613Z,12.63
2024-04-25T20:13:40.559Z,12.67
2024-04-25T20:16:13.532Z,13.83
2024-04-25T20:18:58.844Z,16.93
2024-04-25T20:21:25.697Z,16.23
2024-04-25T20:23:52.637Z,16.17
2024-04-25T20:26:19.578Z,16.23
2024-04-25T20:28:46.537Z,13.77
2024-04-25T20:33:49.976Z,14.23
2024-04-25T20:36:17.197Z,14.13
2024-04-25T20:38:46.006Z,18.13
2024-04-25T20:41:13.337Z,13.83
2024-04-25T20:43:40.433Z,15.20
2024-04-25T20:46:08.163Z,18.50
2024-04-25T20:51:17.233Z,13.40
2024-04-25T20:53:44.341Z,13.73
2024-04-25T20:56:12.164Z,14.30
2024-04-25T20:58:39.097Z,19.37
2024-04-25T21:01:05.968Z,15.40
2024-04-25T21:03:33.210Z,22.67
2024-04-25T21:14:06.263Z,18.70
2024-04-25T21:16:40.848Z,21.30
2024-04-25T21:19:07.871Z,18.00
2024-04-25T21:21:34.708Z,15.50
2024-04-25T21:24:01.595Z,23.93
2024-04-25T21:26:29.237Z,21.70
2024-04-25T21:34:21.262Z,18.40
2024-04-25T21:36:48.204Z,20.67
2024-04-25T21:39:15.184Z,28.57
2024-04-25T21:41:42.620Z,24.63
2024-04-25T21:44:09.994Z,23.93
2024-04-25T21:46:38.014Z,22.80
2024-04-25T21:49:12.383Z,21.20
2024-04-25T21:51:45.698Z,20.20
2024-04-25T21:54:13.137Z,28.37
2024-04-25T21:56:40.082Z,22.20
2024-04-25T21:59:07.575Z,21.93
2024-04-25T22:01:34.622Z,21.80
2024-04-25T22:04:01.698Z,21.87
2024-04-25T22:06:28.537Z,21.67
2024-04-25T22:08:55.389Z,21.40
2024-04-25T22:11:22.322Z,18.93
2024-04-25T22:13:49.126Z,21.93
2024-04-25T22:16:15.973Z,24.67
2024-04-25T22:18:46.517Z,22.70
2024-04-25T22:21:15.111Z,22.50
2024-04-25T22:23:41.966Z,20.70
2024-04-25T22:26:08.802Z,22.53
2024-04-25T22:28:35.576Z,17.97
2024-04-25T22:31:02.341Z,18.03
2024-04-25T22:33:29.213Z,15.70
2024-04-25T22:35:56.152Z,18.50
2024-04-25T22:38:23.071Z,18.40
2024-04-25T22:40:49.898Z,18.07
2024-04-25T22:43:17.458Z,15.47
2024-04-25T22:45:44.289Z,15.73
2024-04-25T22:48:11.242Z,17.23
2024-04-25T22:50:38.155Z,17.47
2024-04-25T22:53:05.183Z,16.53
2024-04-25T22:55:31.986Z,15.53
2024-04-25T22:57:58.898Z,16.97
2024-04-25T23:00:28.631Z,14.57
2024-04-25T23:02:56.229Z,16.00
2024-04-25T23:05:25.363Z,16.77
2024-04-25T23:07:52.207Z,17.37
2024-04-25T23:10:19.015Z,15.87
2024-04-25T23:12:46.441Z,17.50
2024-04-25T23:15:13.375Z,15.53
2024-04-25T23:17:40.202Z,17.77
2024-04-25T23:20:07.327Z,17.20
2024-04-25T23:22:34.130Z,19.43
2024-04-25T23:25:00.962Z,14.80
2024-04-25T23:35:27.292Z,14.20
2024-04-25T23:40:29.642Z,13.27
2024-04-25T23:42:56.460Z,16.33
2024-04-25T23:45:23.244Z,9.67
2024-04-25T23:47:50.231Z,9.87
2024-04-25T23:50:17.115Z,16.70
2024-04-25T23:52:43.914Z,14.10
